createdAt,value
2017-07-09T00:00:23.208Z,94.54
2017-07-09T00:01:23.787Z,95.31
2017-07-09T00:02:24.367Z,93.92
2017-07-09T00:03:24.945Z,91.71
2017-07-09T00:04:25.526Z,92.24
2017-07-09T00:05:26.103Z,94.01
2017-07-09T00:06:26.681Z,96.08
2017-07-09T00:07:27.261Z,97.76
2017-07-09T00:08:27.837Z,99.77
2017-07-09T00:09:28.417Z,99.99
2017-07-09T00:10:28.996Z,99.99
2017-07-09T00:11:29.576Z,99.99
2017-07-09T00:12:30.154Z,99.99
2017-07-09T00:13:30.732Z,99.96
2017-07-09T00:14:31.311Z,99.99
2017-07-09T00:15:31.890Z,99.99
2017-07-09T00:16:32.479Z,99.96
2017-07-09T00:17:33.057Z,99.99
2017-07-09T00:18:33.633Z,99.99
2017-07-09T00:19:34.211Z,99.99
2017-07-09T00:20:34.789Z,99.99
2017-07-09T00:21:35.369Z,99.99
2017-07-09T00:22:35.948Z,99.99
2017-07-09T00:23:36.526Z,96.32
2017-07-09T00:24:37.104Z,96.94
2017-07-09T00:25:37.681Z,97.33
2017-07-09T00:26:38.257Z,99.99
2017-07-09T00:27:38.835Z,99.87
2017-07-09T00:28:39.412Z,99.99
2017-07-09T00:29:39.992Z,99.99
2017-07-09T00:30:40.567Z,98.86
2017-07-09T00:31:41.146Z,99.68
2017-07-09T00:32:41.725Z,99.99
2017-07-09T00:33:42.302Z,99.99
2017-07-09T00:34:42.882Z,99.10
2017-07-09T00:35:43.459Z,99.99
2017-07-09T00:36:44.037Z,99.99
2017-07-09T00:37:44.615Z,99.99
2017-07-09T00:38:45.193Z,99.99
2017-07-09T00:39:45.773Z,99.99
2017-07-09T00:40:46.352Z,99.20
2017-07-09T00:41:46.932Z,99.20
2017-07-09T00:42:47.510Z,99.99
2017-07-09T00:43:48.087Z,99.99
2017-07-09T00:44:48.665Z,99.49
2017-07-09T00:45:49.243Z,99.73
2017-07-09T00:46:49.822Z,99.96
2017-07-09T00:47:50.417Z,98.58
2017-07-09T00:48:50.981Z,98.00
2017-07-09T00:49:51.569Z,95.84
2017-07-09T00:50:52.146Z,97.56
2017-07-09T00:51:52.726Z,98.86
2017-07-09T00:52:53.304Z,96.94
2017-07-09T00:53:53.893Z,97.56
2017-07-09T00:54:54.473Z,98.29
2017-07-09T00:55:55.051Z,98.58
2017-07-09T00:56:55.641Z,97.14
2017-07-09T00:57:56.242Z,95.70
2017-07-09T00:58:56.800Z,96.37
2017-07-09T00:59:57.380Z,97.91
2017-07-09T01:00:57.955Z,99.05
2017-07-09T01:01:58.533Z,97.14
2017-07-09T01:02:59.111Z,97.71
2017-07-09T01:03:59.688Z,97.33
2017-07-09T01:05:00.269Z,97.61
2017-07-09T01:06:00.859Z,97.38
2017-07-09T01:07:01.437Z,97.28
2017-07-09T01:08:02.015Z,98.38
2017-07-09T01:09:02.592Z,98.82
2017-07-09T01:10:03.171Z,99.99
2017-07-09T01:11:03.747Z,99.99
2017-07-09T01:12:04.326Z,99.99
2017-07-09T01:13:04.904Z,99.99
2017-07-09T01:14:05.481Z,99.99
2017-07-09T01:15:06.058Z,99.99
2017-07-09T01:16:06.635Z,99.99
2017-07-09T01:17:07.212Z,99.99
2017-07-09T01:18:07.791Z,99.99
2017-07-09T01:19:08.372Z,99.99
2017-07-09T01:20:08.945Z,99.99
2017-07-09T01:21:09.524Z,99.99
2017-07-09T01:22:10.101Z,99.99
2017-07-09T01:23:10.681Z,99.99
2017-07-09T01:24:11.257Z,99.99
2017-07-09T01:25:11.846Z,99.99
2017-07-09T01:26:12.424Z,99.99
2017-07-09T01:27:13.002Z,99.99
2017-07-09T01:28:13.578Z,99.99
2017-07-09T01:29:14.155Z,99.99
2017-07-09T01:30:14.732Z,99.99
2017-07-09T01:31:15.310Z,99.99
2017-07-09T01:32:15.886Z,99.99
2017-07-09T01:33:16.465Z,99.99
2017-07-09T01:34:17.040Z,99.99
2017-07-09T01:35:17.619Z,99.99
2017-07-09T01:36:18.197Z,99.99
2017-07-09T01:37:18.775Z,99.99
2017-07-09T01:38:19.352Z,99.99
2017-07-09T01:39:19.930Z,99.99
2017-07-09T01:40:20.507Z,99.99
2017-07-09T01:41:21.083Z,99.99
2017-07-09T01:42:21.661Z,99.99
2017-07-09T01:43:22.236Z,99.99
2017-07-09T01:44:22.812Z,99.99
2017-07-09T01:45:23.392Z,99.99
2017-07-09T01:46:23.970Z,99.99
2017-07-09T01:47:24.547Z,99.99
2017-07-09T01:48:25.135Z,99.99
2017-07-09T01:49:25.713Z,99.99
2017-07-09T01:50:26.291Z,99.99
2017-07-09T01:51:26.871Z,99.99
2017-07-09T01:52:27.447Z,99.99
2017-07-09T01:53:28.025Z,99.99
2017-07-09T01:54:28.601Z,99.99
2017-07-09T01:55:29.179Z,99.99
2017-07-09T01:56:29.755Z,99.99
2017-07-09T01:57:30.333Z,99.99
2017-07-09T01:58:30.920Z,99.99
2017-07-09T01:59:31.498Z,99.99
2017-07-09T02:00:32.076Z,99.99
2017-07-09T02:01:32.653Z,99.99
2017-07-09T02:02:33.241Z,99.99
2017-07-09T02:03:33.821Z,99.99
2017-07-09T02:04:34.397Z,99.99
2017-07-09T02:05:34.974Z,99.99
2017-07-09T02:06:35.551Z,99.99
2017-07-09T02:07:36.128Z,99.99
2017-07-09T02:08:36.705Z,99.99
2017-07-09T02:09:37.283Z,99.99
2017-07-09T02:10:37.861Z,99.99
2017-07-09T02:11:38.438Z,99.99
2017-07-09T02:12:39.017Z,99.99
2017-07-09T02:13:39.593Z,99.99
2017-07-09T02:14:40.171Z,99.99
2017-07-09T02:15:40.748Z,99.99
2017-07-09T02:16:41.323Z,99.99
2017-07-09T02:17:41.911Z,99.99
2017-07-09T02:18:42.488Z,99.99
2017-07-09T02:19:43.067Z,99.99
2017-07-09T02:20:43.644Z,99.99
2017-07-09T02:21:44.221Z,99.99
2017-07-09T02:22:44.797Z,99.99
2017-07-09T02:23:45.374Z,99.99
2017-07-09T02:24:45.951Z,99.99
2017-07-09T02:25:46.529Z,99.99
2017-07-09T02:26:47.107Z,99.99
2017-07-09T02:27:47.686Z,99.99
2017-07-09T02:28:48.263Z,99.99
2017-07-09T02:29:48.839Z,99.99
2017-07-09T02:30:49.424Z,99.99
2017-07-09T02:31:49.994Z,99.99
2017-07-09T02:32:50.572Z,99.99
2017-07-09T02:33:51.148Z,99.99
2017-07-09T02:34:51.724Z,99.99
2017-07-09T02:35:52.302Z,99.99
2017-07-09T02:36:52.880Z,99.99
2017-07-09T02:37:53.466Z,99.99
2017-07-09T02:38:54.042Z,99.99
2017-07-09T02:39:54.619Z,99.99
2017-07-09T02:40:55.195Z,99.99
2017-07-09T02:41:55.773Z,99.99
2017-07-09T02:42:56.350Z,99.99
2017-07-09T02:43:56.928Z,99.99
2017-07-09T02:44:57.506Z,99.99
2017-07-09T02:45:58.083Z,99.99
2017-07-09T02:46:58.662Z,99.99
2017-07-09T02:47:59.248Z,99.99
2017-07-09T02:48:59.825Z,99.99
2017-07-09T02:50:00.403Z,99.99
2017-07-09T02:51:00.983Z,99.99
2017-07-09T02:52:01.557Z,99.99
2017-07-09T02:53:02.133Z,99.99
2017-07-09T02:54:02.715Z,99.99
2017-07-09T02:55:03.286Z,99.99
2017-07-09T02:56:03.863Z,99.99
2017-07-09T02:57:04.442Z,99.99
2017-07-09T02:58:05.019Z,99.99
2017-07-09T02:59:05.600Z,99.99
2017-07-09T03:00:06.175Z,99.99
2017-07-09T03:01:06.751Z,99.99
2017-07-09T03:02:07.328Z,99.99
2017-07-09T03:03:07.903Z,99.99
2017-07-09T03:04:08.481Z,99.99
2017-07-09T03:05:09.057Z,99.99
2017-07-09T03:06:09.634Z,99.99
2017-07-09T03:07:10.212Z,99.99
2017-07-09T03:08:10.791Z,99.99
2017-07-09T03:09:11.367Z,99.99
2017-07-09T03:10:11.946Z,99.99
2017-07-09T03:11:12.522Z,99.99
2017-07-09T03:12:13.100Z,99.99
2017-07-09T03:13:13.676Z,99.99
2017-07-09T03:14:14.252Z,99.99
2017-07-09T03:15:14.829Z,99.99
2017-07-09T03:16:15.406Z,99.99
2017-07-09T03:17:15.987Z,99.99
2017-07-09T03:18:16.561Z,99.99
2017-07-09T03:19:17.139Z,99.99
2017-07-09T03:20:17.715Z,99.99
2017-07-09T03:21:18.293Z,99.99
2017-07-09T03:22:18.870Z,99.99
2017-07-09T03:23:19.459Z,99.99
2017-07-09T03:24:20.039Z,99.99
2017-07-09T03:25:20.615Z,99.99
2017-07-09T03:26:21.191Z,99.99
2017-07-09T03:27:21.768Z,99.99
2017-07-09T03:28:22.346Z,99.99
2017-07-09T03:29:22.925Z,99.99
2017-07-09T03:30:23.502Z,99.99
2017-07-09T03:31:24.083Z,99.99
2017-07-09T03:32:24.661Z,99.99
2017-07-09T03:33:25.239Z,99.99
2017-07-09T03:34:25.818Z,99.99
2017-07-09T03:35:26.406Z,99.99
2017-07-09T03:36:26.984Z,99.99
2017-07-09T03:37:27.563Z,99.99
2017-07-09T03:38:28.141Z,99.99
2017-07-09T03:39:28.722Z,99.99
2017-07-09T03:40:29.299Z,99.99
2017-07-09T03:41:29.879Z,99.99
2017-07-09T03:42:30.463Z,99.99
2017-07-09T03:43:31.040Z,99.99
2017-07-09T03:44:31.617Z,99.99
2017-07-09T03:45:32.194Z,99.99
2017-07-09T03:46:32.773Z,99.99
2017-07-09T03:47:33.349Z,99.99
2017-07-09T03:48:33.927Z,99.99
2017-07-09T03:49:34.508Z,99.99
2017-07-09T03:50:35.083Z,99.99
2017-07-09T03:51:35.662Z,99.99
2017-07-09T03:52:36.240Z,99.99
2017-07-09T03:53:36.817Z,99.99
2017-07-09T03:54:37.395Z,99.99
2017-07-09T03:55:37.973Z,99.99
2017-07-09T03:56:38.553Z,99.99
2017-07-09T03:57:39.131Z,99.99
2017-07-09T03:58:39.709Z,99.99
2017-07-09T03:59:40.285Z,99.99
2017-07-09T04:00:40.864Z,99.99
2017-07-09T04:01:41.441Z,99.99
2017-07-09T04:02:42.019Z,99.99
2017-07-09T04:03:42.601Z,99.99
2017-07-09T04:04:43.187Z,99.99
2017-07-09T04:05:43.765Z,99.99
2017-07-09T04:06:44.355Z,99.99
2017-07-09T04:07:44.932Z,99.99
2017-07-09T04:08:45.517Z,99.99
2017-07-09T04:09:46.090Z,99.99
2017-07-09T04:10:46.666Z,99.99
2017-07-09T04:11:47.255Z,99.99
2017-07-09T04:12:47.836Z,99.99
2017-07-09T04:13:48.424Z,99.99
2017-07-09T04:14:49.001Z,99.99
2017-07-09T04:15:49.578Z,99.99
2017-07-09T04:16:50.154Z,99.99
2017-07-09T04:17:50.742Z,99.99
2017-07-09T04:18:51.322Z,99.99
2017-07-09T04:19:51.900Z,99.99
2017-07-09T04:20:52.478Z,99.99
2017-07-09T04:21:53.057Z,99.99
2017-07-09T04:22:53.635Z,99.99
2017-07-09T04:23:54.219Z,99.99
2017-07-09T04:24:54.795Z,99.99
2017-07-09T04:25:55.373Z,99.99
2017-07-09T04:26:55.951Z,99.99
2017-07-09T04:27:56.531Z,99.99
2017-07-09T04:28:57.111Z,99.99
2017-07-09T04:29:57.690Z,99.99
2017-07-09T04:30:58.268Z,99.99
2017-07-09T04:31:58.846Z,99.99
2017-07-09T04:32:59.430Z,99.99
2017-07-09T04:34:00.005Z,99.99
2017-07-09T04:35:00.582Z,99.99
2017-07-09T04:36:01.160Z,99.99
2017-07-09T04:37:01.738Z,99.99
2017-07-09T04:38:02.316Z,99.99
2017-07-09T04:39:02.905Z,99.99
2017-07-09T04:40:03.500Z,99.99
2017-07-09T04:41:04.073Z,99.99
2017-07-09T04:42:04.661Z,99.99
2017-07-09T04:43:05.240Z,99.99
2017-07-09T04:44:05.820Z,99.99
2017-07-09T04:45:06.398Z,99.99
2017-07-09T04:46:06.988Z,99.99
2017-07-09T04:47:07.565Z,99.99
2017-07-09T04:48:08.143Z,99.99
2017-07-09T04:49:08.723Z,99.99
2017-07-09T04:50:09.302Z,99.99
2017-07-09T04:51:09.880Z,99.99
2017-07-09T04:52:10.458Z,99.99
2017-07-09T04:53:11.035Z,99.99
2017-07-09T04:54:11.619Z,99.99
2017-07-09T04:55:12.205Z,99.99
2017-07-09T04:56:12.785Z,99.99
2017-07-09T04:57:13.364Z,99.99
2017-07-09T04:58:13.942Z,99.99
2017-07-09T04:59:14.521Z,99.99
2017-07-09T05:00:15.098Z,99.99
2017-07-09T05:01:15.678Z,99.99
2017-07-09T05:02:16.257Z,99.99
2017-07-09T05:03:16.835Z,99.99
2017-07-09T05:04:17.414Z,99.99
2017-07-09T05:05:17.992Z,99.99
2017-07-09T05:06:18.572Z,99.99
2017-07-09T05:07:19.152Z,99.99
2017-07-09T05:08:19.730Z,99.99
2017-07-09T05:09:20.308Z,99.99
2017-07-09T05:10:20.886Z,99.99
2017-07-09T05:11:21.465Z,99.99
2017-07-09T05:12:22.045Z,99.99
2017-07-09T05:13:22.623Z,99.99
2017-07-09T05:14:23.202Z,99.99
2017-07-09T05:15:23.780Z,99.99
2017-07-09T05:16:24.358Z,99.99
2017-07-09T05:17:24.937Z,99.99
2017-07-09T05:18:25.515Z,99.99
2017-07-09T05:19:26.095Z,99.99
2017-07-09T05:20:26.680Z,99.99
2017-07-09T05:21:27.256Z,99.99
2017-07-09T05:22:27.837Z,99.99
2017-07-09T05:23:28.415Z,99.99
2017-07-09T05:24:28.995Z,99.99
2017-07-09T05:25:29.574Z,99.99
2017-07-09T05:26:30.154Z,99.99
2017-07-09T05:27:30.735Z,99.99
2017-07-09T05:28:31.314Z,99.99
2017-07-09T05:29:31.894Z,99.99
2017-07-09T05:30:32.474Z,99.99
2017-07-09T05:31:33.055Z,99.99
2017-07-09T05:32:33.634Z,99.99
2017-07-09T05:33:34.214Z,99.99
2017-07-09T05:34:34.795Z,99.99
2017-07-09T05:35:35.375Z,99.99
2017-07-09T05:36:35.954Z,99.99
2017-07-09T05:37:36.533Z,99.99
2017-07-09T05:38:37.114Z,99.99
2017-07-09T05:39:37.706Z,99.99
2017-07-09T05:40:38.298Z,99.99
2017-07-09T05:41:38.877Z,99.99
2017-07-09T05:42:39.458Z,99.99
2017-07-09T05:43:40.038Z,99.99
2017-07-09T05:44:40.618Z,99.99
2017-07-09T05:45:41.198Z,99.99
2017-07-09T05:46:41.778Z,99.99
2017-07-09T05:47:42.360Z,99.99
2017-07-09T05:48:42.951Z,99.99
2017-07-09T05:49:43.530Z,99.99
2017-07-09T05:50:44.110Z,99.99
2017-07-09T05:51:44.690Z,99.99
2017-07-09T05:52:45.270Z,99.99
2017-07-09T05:53:45.852Z,99.99
2017-07-09T05:54:46.432Z,99.99
2017-07-09T05:55:47.069Z,99.99
2017-07-09T05:56:47.592Z,99.99
2017-07-09T05:57:48.171Z,99.99
2017-07-09T05:58:48.752Z,99.99
2017-07-09T05:59:49.332Z,99.99
2017-07-09T06:00:49.912Z,99.99
2017-07-09T06:01:50.494Z,99.99
2017-07-09T06:02:51.073Z,99.99
2017-07-09T06:03:51.653Z,99.99
2017-07-09T06:04:52.234Z,99.99
2017-07-09T06:05:52.814Z,99.99
2017-07-09T06:06:53.395Z,99.99
2017-07-09T06:07:53.974Z,99.99
2017-07-09T06:08:54.554Z,99.68
2017-07-09T06:09:55.137Z,99.99
2017-07-09T06:10:55.718Z,99.99
2017-07-09T06:11:56.297Z,99.99
2017-07-09T06:12:56.878Z,99.99
2017-07-09T06:13:57.458Z,99.99
2017-07-09T06:14:58.040Z,99.99
2017-07-09T06:15:58.632Z,99.99
2017-07-09T06:16:59.211Z,99.99
2017-07-09T06:17:59.792Z,97.81
2017-07-09T06:19:00.377Z,97.81
2017-07-09T06:20:00.953Z,96.85
2017-07-09T06:21:01.533Z,97.91
2017-07-09T06:22:02.113Z,97.33
2017-07-09T06:23:02.695Z,98.86
2017-07-09T06:24:03.278Z,97.24
2017-07-09T06:25:03.857Z,98.96
2017-07-09T06:26:04.449Z,99.99
2017-07-09T06:27:05.030Z,99.01
2017-07-09T06:28:05.611Z,96.13
2017-07-09T06:29:06.192Z,96.03
2017-07-09T06:30:06.774Z,95.84
2017-07-09T06:31:07.374Z,98.14
2017-07-09T06:32:07.959Z,96.51
2017-07-09T06:33:08.541Z,96.27
2017-07-09T06:34:09.123Z,95.50
2017-07-09T06:35:09.704Z,95.60
2017-07-09T06:36:10.285Z,95.07
2017-07-09T06:37:10.867Z,93.77
2017-07-09T06:38:11.447Z,93.92
2017-07-09T06:39:12.039Z,94.98
2017-07-09T06:40:12.622Z,95.94
2017-07-09T06:41:13.202Z,94.78
2017-07-09T06:42:13.783Z,95.94
2017-07-09T06:43:14.365Z,94.98
2017-07-09T06:44:14.946Z,96.22
2017-07-09T06:45:15.529Z,95.75
2017-07-09T06:46:16.110Z,96.32
2017-07-09T06:47:16.690Z,94.31
2017-07-09T06:48:17.273Z,93.73
2017-07-09T06:49:17.853Z,94.59
2017-07-09T06:50:18.434Z,95.65
2017-07-09T06:51:19.025Z,95.70
2017-07-09T06:52:19.608Z,94.54
2017-07-09T06:53:20.189Z,94.26
2017-07-09T06:54:20.770Z,94.73
2017-07-09T06:55:21.362Z,94.01
2017-07-09T06:56:21.942Z,94.54
2017-07-09T06:57:22.523Z,95.17
2017-07-09T06:58:23.107Z,95.55
2017-07-09T06:59:23.692Z,95.55
2017-07-09T07:00:24.269Z,95.45
2017-07-09T07:01:24.850Z,94.93
2017-07-09T07:02:25.431Z,93.68
2017-07-09T07:03:26.014Z,93.77
2017-07-09T07:04:26.606Z,94.16
2017-07-09T07:05:27.188Z,94.83
2017-07-09T07:06:27.789Z,94.78
2017-07-09T07:07:28.349Z,94.49
2017-07-09T07:08:28.930Z,95.55
2017-07-09T07:09:29.511Z,95.26
2017-07-09T07:10:30.092Z,94.98
2017-07-09T07:11:30.674Z,94.88
2017-07-09T07:12:31.258Z,94.49
2017-07-09T07:13:31.839Z,93.54
2017-07-09T07:14:32.419Z,93.68
2017-07-09T07:15:33.000Z,94.40
2017-07-09T07:16:33.581Z,93.49
2017-07-09T07:17:34.165Z,91.66
2017-07-09T07:18:34.745Z,93.01
2017-07-09T07:19:35.327Z,92.05
2017-07-09T07:20:35.929Z,92.86
2017-07-09T07:21:36.489Z,91.90
2017-07-09T07:22:37.069Z,91.71
2017-07-09T07:23:37.650Z,93.05
2017-07-09T07:24:38.232Z,91.94
2017-07-09T07:25:38.814Z,91.61
2017-07-09T07:26:39.394Z,90.17
2017-07-09T07:27:39.976Z,91.22
2017-07-09T07:28:40.558Z,90.59
2017-07-09T07:29:41.138Z,90.02
2017-07-09T07:30:41.720Z,90.45
2017-07-09T07:31:42.302Z,90.07
2017-07-09T07:32:42.884Z,89.11
2017-07-09T07:33:43.467Z,89.30
2017-07-09T07:34:44.048Z,90.02
2017-07-09T07:35:44.628Z,89.92
2017-07-09T07:36:45.212Z,89.83
2017-07-09T07:37:45.792Z,88.39
2017-07-09T07:38:46.375Z,88.44
2017-07-09T07:39:46.955Z,89.64
2017-07-09T07:40:47.535Z,88.87
2017-07-09T07:41:48.120Z,89.97
2017-07-09T07:42:48.700Z,88.29
2017-07-09T07:43:49.281Z,88.43
2017-07-09T07:44:49.862Z,88.33
2017-07-09T07:45:50.444Z,86.51
2017-07-09T07:46:51.027Z,87.95
2017-07-09T07:47:51.607Z,87.03
2017-07-09T07:48:52.189Z,87.12
2017-07-09T07:49:52.773Z,85.68
2017-07-09T07:50:53.355Z,85.35
2017-07-09T07:51:53.936Z,85.44
2017-07-09T07:52:54.528Z,84.67
2017-07-09T07:53:55.110Z,85.16
2017-07-09T07:54:55.692Z,85.35
2017-07-09T07:55:56.275Z,85.54
2017-07-09T07:56:56.854Z,84.97
2017-07-09T07:57:57.436Z,85.64
2017-07-09T07:58:58.021Z,86.56
2017-07-09T07:59:58.611Z,87.62
2017-07-09T08:00:59.204Z,85.60
2017-07-09T08:01:59.785Z,85.74
2017-07-09T08:03:00.365Z,85.64
2017-07-09T08:04:00.948Z,86.51
2017-07-09T08:05:01.533Z,85.06
2017-07-09T08:06:02.126Z,85.16
2017-07-09T08:07:02.717Z,85.10
2017-07-09T08:08:03.299Z,83.75
2017-07-09T08:09:03.883Z,85.10
2017-07-09T08:10:04.466Z,85.63
2017-07-09T08:11:05.049Z,83.55
2017-07-09T08:12:05.631Z,82.10
2017-07-09T08:13:06.212Z,81.72
2017-07-09T08:14:06.794Z,81.72
2017-07-09T08:15:07.375Z,81.45
2017-07-09T08:16:07.957Z,84.18
2017-07-09T08:17:08.542Z,83.36
2017-07-09T08:18:09.124Z,80.46
2017-07-09T08:19:09.706Z,81.29
2017-07-09T08:20:10.290Z,82.39
2017-07-09T08:21:10.871Z,82.24
2017-07-09T08:22:11.452Z,80.66
2017-07-09T08:23:12.046Z,81.70
2017-07-09T08:24:12.628Z,78.73
2017-07-09T08:25:13.209Z,81.14
2017-07-09T08:26:13.792Z,81.27
2017-07-09T08:27:14.374Z,80.79
2017-07-09T08:28:14.956Z,80.12
2017-07-09T08:29:15.538Z,79.54
2017-07-09T08:30:16.120Z,79.74
2017-07-09T08:31:16.704Z,79.68
2017-07-09T08:32:17.285Z,79.24
2017-07-09T08:33:17.868Z,78.67
2017-07-09T08:34:18.461Z,79.25
2017-07-09T08:35:19.044Z,78.48
2017-07-09T08:36:19.627Z,78.44
2017-07-09T08:37:20.211Z,78.83
2017-07-09T08:38:20.792Z,77.38
2017-07-09T08:39:21.375Z,78.98
2017-07-09T08:40:21.956Z,80.76
2017-07-09T08:41:22.539Z,79.06
2017-07-09T08:42:23.123Z,76.36
2017-07-09T08:43:23.705Z,77.17
2017-07-09T08:44:24.288Z,77.84
2017-07-09T08:45:24.872Z,78.75
2017-07-09T08:46:25.454Z,77.69
2017-07-09T08:47:26.047Z,76.78
2017-07-09T08:48:26.631Z,78.36
2017-07-09T08:49:27.213Z,76.82
2017-07-09T08:50:27.795Z,76.67
2017-07-09T08:51:28.378Z,76.92
2017-07-09T08:52:28.961Z,75.67
2017-07-09T08:53:29.545Z,76.86
2017-07-09T08:54:30.128Z,75.99
2017-07-09T08:55:30.713Z,76.90
2017-07-09T08:56:31.297Z,75.74
2017-07-09T08:57:31.880Z,74.68
2017-07-09T08:58:32.467Z,75.06
2017-07-09T08:59:33.059Z,74.58
2017-07-09T09:00:33.644Z,74.93
2017-07-09T09:01:34.227Z,75.22
2017-07-09T09:02:34.811Z,75.22
2017-07-09T09:03:35.397Z,74.19
2017-07-09T09:04:35.979Z,73.58
2017-07-09T09:05:36.564Z,74.35
2017-07-09T09:06:37.146Z,74.93
2017-07-09T09:07:37.731Z,74.89
2017-07-09T09:08:38.315Z,74.79
2017-07-09T09:09:38.897Z,75.70
2017-07-09T09:10:39.480Z,74.68
2017-07-09T09:11:40.065Z,74.21
2017-07-09T09:12:40.647Z,75.12
2017-07-09T09:13:41.230Z,75.64
2017-07-09T09:14:41.812Z,73.06
2017-07-09T09:15:42.408Z,74.89
2017-07-09T09:16:42.992Z,75.18
2017-07-09T09:17:43.587Z,75.18
2017-07-09T09:18:44.170Z,75.47
2017-07-09T09:19:44.754Z,74.69
2017-07-09T09:20:45.340Z,75.18
2017-07-09T09:21:45.924Z,74.89
2017-07-09T09:22:46.509Z,74.79
2017-07-09T09:23:47.094Z,74.64
2017-07-09T09:24:47.678Z,74.00
2017-07-09T09:25:48.265Z,73.48
2017-07-09T09:26:48.847Z,74.16
2017-07-09T09:27:49.431Z,74.48
2017-07-09T09:28:50.016Z,75.06
2017-07-09T09:29:50.601Z,73.19
2017-07-09T09:30:51.185Z,74.77
2017-07-09T09:31:51.767Z,74.68
2017-07-09T09:32:52.361Z,74.48
2017-07-09T09:33:52.944Z,74.42
2017-07-09T09:34:53.528Z,72.49
2017-07-09T09:35:54.113Z,71.58
2017-07-09T09:36:54.695Z,71.87
2017-07-09T09:37:55.279Z,73.44
2017-07-09T09:38:55.862Z,74.21
2017-07-09T09:39:56.445Z,74.31
2017-07-09T09:40:57.030Z,74.69
2017-07-09T09:41:57.612Z,74.69
2017-07-09T09:42:58.197Z,75.27
2017-07-09T09:43:58.790Z,74.16
2017-07-09T09:44:59.372Z,72.90
2017-07-09T09:45:59.958Z,73.28
2017-07-09T09:47:00.543Z,73.67
2017-07-09T09:48:01.127Z,72.71
2017-07-09T09:49:01.711Z,73.19
2017-07-09T09:50:02.295Z,73.77
2017-07-09T09:51:02.878Z,74.06
2017-07-09T09:52:03.461Z,74.13
2017-07-09T09:53:04.063Z,72.97
2017-07-09T09:54:04.639Z,71.52
2017-07-09T09:55:05.221Z,71.04
2017-07-09T09:56:05.809Z,71.10
2017-07-09T09:57:06.389Z,72.45
2017-07-09T09:58:06.971Z,72.36
2017-07-09T09:59:07.555Z,71.72
2017-07-09T10:00:08.147Z,70.72
2017-07-09T10:01:08.730Z,71.55
2017-07-09T10:02:09.316Z,72.45
2017-07-09T10:03:09.909Z,73.36
2017-07-09T10:04:10.495Z,72.13
2017-07-09T10:05:11.081Z,72.94
2017-07-09T10:06:11.666Z,72.10
2017-07-09T10:07:12.250Z,71.78
2017-07-09T10:08:12.837Z,69.27
2017-07-09T10:09:13.433Z,69.27
2017-07-09T10:10:14.017Z,69.62
2017-07-09T10:11:14.601Z,69.46
2017-07-09T10:12:15.185Z,69.46
2017-07-09T10:13:15.770Z,69.20
2017-07-09T10:14:16.356Z,69.92
2017-07-09T10:15:16.939Z,70.76
2017-07-09T10:16:17.523Z,69.21
2017-07-09T10:17:18.108Z,68.95
2017-07-09T10:18:18.691Z,70.68
2017-07-09T10:19:19.274Z,69.66
2017-07-09T10:20:19.859Z,68.69
2017-07-09T10:21:20.447Z,66.91
2017-07-09T10:22:21.029Z,68.46
2017-07-09T10:23:21.625Z,68.56
2017-07-09T10:24:22.209Z,68.79
2017-07-09T10:25:22.793Z,67.37
2017-07-09T10:26:23.378Z,68.43
2017-07-09T10:27:23.961Z,67.66
2017-07-09T10:28:24.546Z,67.11
2017-07-09T10:29:25.130Z,64.95
2017-07-09T10:30:25.716Z,65.59
2017-07-09T10:31:26.301Z,68.49
2017-07-09T10:32:26.885Z,67.79
2017-07-09T10:33:27.470Z,66.08
2017-07-09T10:34:28.057Z,65.56
2017-07-09T10:35:28.640Z,65.85
2017-07-09T10:36:29.226Z,64.24
2017-07-09T10:37:29.813Z,64.98
2017-07-09T10:38:30.399Z,65.95
2017-07-09T10:39:30.982Z,65.92
2017-07-09T10:40:31.569Z,65.20
2017-07-09T10:41:32.154Z,63.75
2017-07-09T10:42:32.738Z,63.56
2017-07-09T10:43:33.325Z,65.05
2017-07-09T10:44:33.910Z,66.05
2017-07-09T10:45:34.496Z,65.59
2017-07-09T10:46:35.082Z,63.66
2017-07-09T10:47:35.668Z,64.17
2017-07-09T10:48:36.253Z,65.17
2017-07-09T10:49:36.842Z,65.75
2017-07-09T10:50:37.423Z,64.89
2017-07-09T10:51:38.011Z,64.59
2017-07-09T10:52:38.595Z,65.56
2017-07-09T10:53:39.181Z,66.08
2017-07-09T10:54:39.767Z,65.69
2017-07-09T10:55:40.352Z,64.65
2017-07-09T10:56:40.937Z,64.95
2017-07-09T10:57:41.523Z,59.77
2017-07-09T10:58:42.108Z,60.64
2017-07-09T10:59:42.694Z,59.48
2017-07-09T11:00:43.281Z,61.68
2017-07-09T11:01:43.866Z,62.10
2017-07-09T11:02:44.452Z,60.58
2017-07-09T11:03:45.037Z,58.29
2017-07-09T11:04:45.623Z,60.20
2017-07-09T11:05:46.207Z,59.42
2017-07-09T11:06:46.791Z,61.07
2017-07-09T11:07:47.386Z,60.20
2017-07-09T11:08:47.970Z,61.26
2017-07-09T11:09:48.556Z,60.65
2017-07-09T11:10:49.140Z,60.94
2017-07-09T11:11:49.726Z,60.58
2017-07-09T11:12:50.312Z,60.20
2017-07-09T11:13:50.911Z,59.69
2017-07-09T11:14:51.493Z,60.10
2017-07-09T11:15:52.081Z,60.10
2017-07-09T11:16:52.668Z,58.36
2017-07-09T11:17:53.264Z,58.81
2017-07-09T11:18:53.861Z,60.43
2017-07-09T11:19:54.448Z,59.84
2017-07-09T11:20:55.034Z,60.43
2017-07-09T11:21:55.620Z,60.24
2017-07-09T11:22:56.206Z,60.36
2017-07-09T11:23:56.791Z,60.55
2017-07-09T11:24:57.388Z,59.84
2017-07-09T11:25:57.974Z,61.17
2017-07-09T11:26:58.559Z,59.45
2017-07-09T11:27:59.145Z,59.80
2017-07-09T11:28:59.732Z,57.57
2017-07-09T11:30:00.318Z,57.37
2017-07-09T11:31:00.906Z,58.08
2017-07-09T11:32:01.503Z,57.14
2017-07-09T11:33:02.118Z,56.36
2017-07-09T11:34:02.704Z,56.14
2017-07-09T11:35:03.302Z,57.04
2017-07-09T11:36:03.887Z,56.85
2017-07-09T11:37:04.474Z,55.39
2017-07-09T11:38:05.059Z,55.22
2017-07-09T11:39:05.647Z,53.69
2017-07-09T11:40:06.233Z,55.55
2017-07-09T11:41:06.820Z,55.29
2017-07-09T11:42:07.405Z,52.55
2017-07-09T11:43:07.993Z,54.46
2017-07-09T11:44:08.582Z,55.85
2017-07-09T11:45:09.167Z,55.98
2017-07-09T11:46:09.752Z,55.10
2017-07-09T11:47:10.350Z,54.13
2017-07-09T11:48:10.936Z,55.24
2017-07-09T11:49:11.523Z,55.92
2017-07-09T11:50:12.115Z,54.94
2017-07-09T11:51:12.696Z,56.21
2017-07-09T11:52:13.284Z,55.85
2017-07-09T11:53:13.869Z,54.49
2017-07-09T11:54:14.456Z,55.21
2017-07-09T11:55:15.041Z,55.26
2017-07-09T11:56:15.635Z,56.90
2017-07-09T11:57:16.220Z,55.44
2017-07-09T11:58:16.817Z,56.41
2017-07-09T11:59:17.402Z,55.67
2017-07-09T12:00:17.991Z,53.12
2017-07-09T12:01:18.576Z,53.94
2017-07-09T12:02:19.163Z,59.23
2017-07-09T12:03:19.760Z,59.79
2017-07-09T12:04:20.344Z,60.30
2017-07-09T12:05:20.931Z,60.50
2017-07-09T12:06:21.519Z,60.65
2017-07-09T12:07:22.105Z,59.30
2017-07-09T12:08:22.694Z,59.84
2017-07-09T12:09:23.279Z,58.33
2017-07-09T12:10:23.866Z,59.17
2017-07-09T12:11:24.452Z,59.94
2017-07-09T12:12:25.039Z,60.65
2017-07-09T12:13:25.636Z,60.04
2017-07-09T12:14:26.221Z,59.78
2017-07-09T12:15:26.807Z,57.98
2017-07-09T12:16:27.392Z,58.78
2017-07-09T12:17:27.978Z,58.81
2017-07-09T12:18:28.564Z,58.55
2017-07-09T12:19:29.159Z,56.59
2017-07-09T12:20:29.743Z,59.30
2017-07-09T12:21:30.329Z,58.11
2017-07-09T12:22:30.912Z,58.01
2017-07-09T12:23:31.497Z,56.82
2017-07-09T12:24:32.085Z,57.17
2017-07-09T12:25:32.671Z,56.20
2017-07-09T12:26:33.257Z,55.04
2017-07-09T12:27:33.844Z,55.20
2017-07-09T12:28:34.428Z,55.13
2017-07-09T12:29:35.015Z,55.06
2017-07-09T12:30:35.601Z,53.73
2017-07-09T12:31:36.186Z,54.63
2017-07-09T12:32:36.772Z,53.42
2017-07-09T12:33:37.368Z,53.10
2017-07-09T12:34:37.953Z,52.50
2017-07-09T12:35:38.539Z,53.80
2017-07-09T12:36:39.127Z,54.99
2017-07-09T12:37:39.711Z,55.04
2017-07-09T12:38:40.297Z,54.11
2017-07-09T12:39:40.886Z,55.06
2017-07-09T12:40:41.472Z,56.23
2017-07-09T12:41:42.059Z,55.62
2017-07-09T12:42:42.646Z,55.81
2017-07-09T12:43:43.230Z,55.52
2017-07-09T12:44:43.816Z,56.94
2017-07-09T12:45:44.403Z,56.94
2017-07-09T12:46:44.989Z,54.94
2017-07-09T12:47:45.573Z,54.48
2017-07-09T12:48:46.161Z,55.08
2017-07-09T12:49:46.746Z,54.11
2017-07-09T12:50:47.331Z,54.34
2017-07-09T12:51:47.916Z,54.10
2017-07-09T12:52:48.512Z,51.48
2017-07-09T12:53:49.098Z,52.01
2017-07-09T12:54:49.686Z,52.95
2017-07-09T12:55:50.270Z,53.27
2017-07-09T12:56:50.857Z,54.14
2017-07-09T12:57:51.446Z,52.25
2017-07-09T12:58:52.032Z,52.20
2017-07-09T12:59:52.617Z,53.20